Time;durP1;ratioP1;P1;durP2;ratioP2;P2;SDS_P1;SDS_P2;PMS_P1;PMS_P2;Temp;Humidity;BMP_temperature;BMP_pressure;BME280_temperature;BME280_humidity;BME280_pressure;Samples;Min_cycle;Max_cycle;Signal;HPM_P1;HPM_P2
2020/12/28 00:00:32;;;;;;;1.35;1.10;;;;;;;;;;5073904;28;20190;-47
2020/12/28 00:02:58;;;;;;;1.95;1.38;;;;;;;;;;5068011;28;20300;-47
2020/12/28 00:05:24;;;;;;;1.30;1.13;;;;;;;;;;5053497;28;20182;-46
2020/12/28 00:07:51;;;;;;;2.53;1.23;;;;;;;;;;5065181;28;20186;-46
2020/12/28 00:10:17;;;;;;;1.70;0.98;;;;;;;;;;5065046;28;20253;-46
2020/12/28 00:12:46;;;;;;;1.30;1.20;;;;;;;;;;5056295;28;20186;-46
2020/12/28 00:15:22;;;;;;;2.97;1.25;;;;;;;;;;5073640;28;20584;-46
2020/12/28 00:17:49;;;;;;;1.15;1.00;;;;;;;;;;5071133;28;20174;-46
2020/12/28 00:20:15;;;;;;;1.25;1.13;;;;;;;;;;5053845;28;20179;-47
2020/12/28 00:22:41;;;;;;;2.22;1.20;;;;;;;;;;5055838;28;20273;-47
2020/12/28 00:25:07;;;;;;;3.15;1.20;;;;;;;;;;5071085;28;20189;-47
2020/12/28 00:27:34;;;;;;;2.05;1.10;;;;;;;;;;5060248;28;20183;-47
2020/12/28 00:30:00;;;;;;;1.20;1.10;;;;;;;;;;5053827;28;20191;-46
2020/12/28 00:32:26;;;;;;;3.03;1.15;;;;;;;;;;5053646;28;20244;-46
2020/12/28 00:34:52;;;;;;;1.40;1.17;;;;;;;;;;5072517;28;20480;-46
2020/12/28 00:37:18;;;;;;;1.40;1.30;;;;;;;;;;5068627;28;20178;-46
2020/12/28 00:39:44;;;;;;;1.52;1.27;;;;;;;;;;5053488;28;20502;-46
2020/12/28 00:42:10;;;;;;;1.83;1.10;;;;;;;;;;5053719;28;20990;-46
2020/12/28 00:44:36;;;;;;;2.03;1.48;;;;;;;;;;5070221;28;20197;-46
2020/12/28 00:47:02;;;;;;;2.40;1.38;;;;;;;;;;5073656;28;20179;-45
2020/12/28 00:49:28;;;;;;;1.60;1.40;;;;;;;;;;5073346;28;20662;-46
2020/12/28 00:51:54;;;;;;;2.35;1.20;;;;;;;;;;5071045;28;20278;-46
2020/12/28 00:54:20;;;;;;;1.50;1.17;;;;;;;;;;5064361;28;20590;-46
2020/12/28 00:56:49;;;;;;;3.05;1.30;;;;;;;;;;5072942;28;20449;-46
2020/12/28 00:59:15;;;;;;;1.92;1.33;;;;;;;;;;5073385;28;20194;-46
2020/12/28 01:01:41;;;;;;;1.13;1.05;;;;;;;;;;5073310;28;20206;-46
2020/12/28 01:04:07;;;;;;;1.00;1.00;;;;;;;;;;5071474;28;20187;-46
2020/12/28 01:06:33;;;;;;;1.23;1.10;;;;;;;;;;5053584;28;20187;-46
2020/12/28 01:08:59;;;;;;;2.28;1.30;;;;;;;;;;5054863;28;20218;-46
2020/12/28 01:11:25;;;;;;;2.83;1.25;;;;;;;;;;5057228;28;20186;-46
2020/12/28 01:13:51;;;;;;;1.33;1.23;;;;;;;;;;5066331;28;20213;-46
2020/12/28 01:16:17;;;;;;;1.30;1.17;;;;;;;;;;5076800;28;20703;-46
2020/12/28 01:18:43;;;;;;;1.90;1.27;;;;;;;;;;5075248;28;20185;-47
2020/12/28 01:21:09;;;;;;;1.35;1.20;;;;;;;;;;5075465;28;20478;-46
2020/12/28 01:23:35;;;;;;;1.25;1.10;;;;;;;;;;5065430;28;20183;-45
2020/12/28 01:26:01;;;;;;;1.38;1.27;;;;;;;;;;5074827;28;20170;-46
2020/12/28 01:28:27;;;;;;;1.17;1.08;;;;;;;;;;5076222;28;20217;-47
2020/12/28 01:30:53;;;;;;;1.33;1.20;;;;;;;;;;5057501;28;20185;-46
2020/12/28 01:33:19;;;;;;;1.50;1.40;;;;;;;;;;5065544;28;20651;-47
2020/12/28 01:35:45;;;;;;;1.42;1.30;;;;;;;;;;5073234;28;20182;-47
2020/12/28 01:38:11;;;;;;;1.30;1.20;;;;;;;;;;5076623;28;20175;-48
2020/12/28 01:40:37;;;;;;;2.08;1.33;;;;;;;;;;5074658;28;20528;-47
2020/12/28 01:43:03;;;;;;;1.80;1.23;;;;;;;;;;5058429;28;20187;-46
2020/12/28 01:45:29;;;;;;;1.40;1.30;;;;;;;;;;5075915;28;20562;-46
2020/12/28 01:47:55;;;;;;;1.40;1.30;;;;;;;;;;5071983;28;20191;-46
2020/12/28 01:50:21;;;;;;;1.30;1.20;;;;;;;;;;5070083;28;20211;-46
2020/12/28 01:52:47;;;;;;;1.48;1.35;;;;;;;;;;5076217;28;20219;-47
2020/12/28 01:55:13;;;;;;;1.38;1.27;;;;;;;;;;5056141;28;20258;-47
2020/12/28 01:57:39;;;;;;;1.13;1.02;;;;;;;;;;5059520;28;20170;-46
2020/12/28 02:00:05;;;;;;;1.23;1.10;;;;;;;;;;5076470;28;20257;-46
2020/12/28 02:02:33;;;;;;;1.45;1.35;;;;;;;;;;5064266;28;20229;-46
2020/12/28 02:04:59;;;;;;;1.20;1.10;;;;;;;;;;5072975;28;20483;-47
2020/12/28 02:07:27;;;;;;;1.58;1.25;;;;;;;;;;5071958;28;20183;-46
2020/12/28 02:09:53;;;;;;;1.40;1.30;;;;;;;;;;5074535;28;20194;-46
2020/12/28 02:12:20;;;;;;;1.58;1.40;;;;;;;;;;5076251;28;20200;-46
2020/12/28 02:14:46;;;;;;;1.23;1.02;;;;;;;;;;5070183;28;20170;-47
2020/12/28 02:17:12;;;;;;;1.40;1.30;;;;;;;;;;5070629;28;20569;-47
2020/12/28 02:19:38;;;;;;;1.50;1.40;;;;;;;;;;5075645;28;20252;-47
2020/12/28 02:22:04;;;;;;;1.40;1.30;;;;;;;;;;5071418;28;20185;-47
2020/12/28 02:24:30;;;;;;;1.38;1.27;;;;;;;;;;5067700;28;20218;-47
2020/12/28 02:26:56;;;;;;;1.50;1.40;;;;;;;;;;5061884;28;20575;-47
2020/12/28 02:29:22;;;;;;;1.73;1.30;;;;;;;;;;5055625;28;20245;-47
2020/12/28 02:31:48;;;;;;;1.52;1.42;;;;;;;;;;5055806;28;20547;-47
2020/12/28 02:34:14;;;;;;;1.50;1.38;;;;;;;;;;5067684;28;20218;-47
2020/12/28 02:36:40;;;;;;;1.52;1.40;;;;;;;;;;5063214;28;20194;-47
2020/12/28 02:39:06;;;;;;;1.75;1.60;;;;;;;;;;5071241;28;20194;-47
2020/12/28 02:41:32;;;;;;;1.60;1.50;;;;;;;;;;5075306;28;20178;-47
2020/12/28 02:43:58;;;;;;;1.30;1.20;;;;;;;;;;5065150;28;20191;-47
2020/12/28 02:46:23;;;;;;;1.40;1.30;;;;;;;;;;5055955;28;20183;-47
2020/12/28 02:48:49;;;;;;;1.30;1.20;;;;;;;;;;5060435;28;20247;-47
2020/12/28 02:51:15;;;;;;;1.50;1.40;;;;;;;;;;5074693;28;20559;-46
2020/12/28 02:53:41;;;;;;;1.30;1.20;;;;;;;;;;5067394;28;20179;-47
2020/12/28 02:56:07;;;;;;;1.35;1.25;;;;;;;;;;5061570;28;20590;-46
2020/12/28 02:58:33;;;;;;;2.63;1.20;;;;;;;;;;5074909;28;20179;-47
2020/12/28 03:00:59;;;;;;;1.63;1.50;;;;;;;;;;5075244;28;20190;-47
2020/12/28 03:03:25;;;;;;;1.63;1.33;;;;;;;;;;5069299;28;20195;-47
2020/12/28 03:05:51;;;;;;;1.40;1.30;;;;;;;;;;5059005;28;20217;-47
2020/12/28 03:08:17;;;;;;;1.58;1.30;;;;;;;;;;5074822;28;20265;-47
2020/12/28 03:10:43;;;;;;;1.30;1.20;;;;;;;;;;5074998;28;20228;-47
2020/12/28 03:13:10;;;;;;;1.67;1.58;;;;;;;;;;5072301;28;20185;-47
2020/12/28 03:15:36;;;;;;;3.20;1.55;;;;;;;;;;5056075;28;20194;-47
2020/12/28 03:18:02;;;;;;;1.30;1.20;;;;;;;;;;5074907;28;20190;-47
2020/12/28 03:20:28;;;;;;;1.95;1.70;;;;;;;;;;5073986;28;20218;-47
2020/12/28 03:22:54;;;;;;;1.50;1.35;;;;;;;;;;5074284;28;20505;-47
2020/12/28 03:25:20;;;;;;;1.38;1.27;;;;;;;;;;5053679;28;20183;-47
2020/12/28 03:27:46;;;;;;;1.35;1.25;;;;;;;;;;5072959;28;20214;-47
2020/12/28 03:30:12;;;;;;;1.42;1.30;;;;;;;;;;5072800;28;20569;-47
2020/12/28 03:32:38;;;;;;;1.35;1.25;;;;;;;;;;5054075;28;20179;-47
2020/12/28 03:35:04;;;;;;;2.83;1.30;;;;;;;;;;5074244;28;20569;-47
2020/12/28 03:37:30;;;;;;;1.15;1.10;;;;;;;;;;5056982;28;20194;-46
2020/12/28 03:39:56;;;;;;;1.20;1.10;;;;;;;;;;5054834;28;20577;-47
2020/12/28 03:42:22;;;;;;;2.17;1.40;;;;;;;;;;5054454;28;20201;-47
2020/12/28 03:44:48;;;;;;;1.50;1.40;;;;;;;;;;5053866;28;20179;-47
2020/12/28 03:47:14;;;;;;;1.42;1.23;;;;;;;;;;5055734;28;20187;-47
2020/12/28 03:49:40;;;;;;;1.88;1.30;;;;;;;;;;5059759;28;20227;-47
2020/12/28 03:52:05;;;;;;;1.55;1.45;;;;;;;;;;5054336;28;20179;-47
2020/12/28 03:54:31;;;;;;;1.67;1.55;;;;;;;;;;5060069;28;20229;-47
2020/12/28 03:56:57;;;;;;;1.40;1.30;;;;;;;;;;5061809;28;20198;-47
2020/12/28 03:59:23;;;;;;;1.50;1.40;;;;;;;;;;5054035;28;20179;-47
2020/12/28 04:01:49;;;;;;;2.03;1.27;;;;;;;;;;5054618;28;20206;-46
2020/12/28 04:04:15;;;;;;;1.40;1.30;;;;;;;;;;5073767;28;20622;-46
2020/12/28 04:06:42;;;;;;;1.35;1.25;;;;;;;;;;5063682;28;20269;-47
2020/12/28 04:09:07;;;;;;;1.33;1.20;;;;;;;;;;5070447;28;20241;-46
2020/12/28 04:11:33;;;;;;;1.40;1.30;;;;;;;;;;5073790;28;20261;-47
2020/12/28 04:13:59;;;;;;;1.67;1.50;;;;;;;;;;5074007;28;20185;-47
2020/12/28 04:16:25;;;;;;;2.38;1.35;;;;;;;;;;5064495;28;20179;-47
2020/12/28 04:18:51;;;;;;;1.73;1.63;;;;;;;;;;5059083;28;20253;-46
2020/12/28 04:21:17;;;;;;;1.40;1.30;;;;;;;;;;5054091;28;20180;-46
2020/12/28 04:23:43;;;;;;;1.45;1.35;;;;;;;;;;5053704;28;20175;-46
2020/12/28 04:26:09;;;;;;;1.45;1.35;;;;;;;;;;5058279;28;20257;-46
2020/12/28 04:28:35;;;;;;;1.38;1.27;;;;;;;;;;5056503;28;20194;-47
2020/12/28 04:31:01;;;;;;;1.20;1.10;;;;;;;;;;5063878;28;20209;-47
2020/12/28 04:33:27;;;;;;;1.50;1.40;;;;;;;;;;5073605;28;20570;-46
2020/12/28 04:35:53;;;;;;;1.50;1.40;;;;;;;;;;5070422;28;20173;-46
2020/12/28 04:38:19;;;;;;;1.48;1.38;;;;;;;;;;5054013;28;20589;-47
2020/12/28 04:40:45;;;;;;;1.45;1.35;;;;;;;;;;5053522;28;20194;-47
2020/12/28 04:43:13;;;;;;;1.13;1.10;;;;;;;;;;5053947;28;20183;-47
2020/12/28 04:45:39;;;;;;;1.45;1.35;;;;;;;;;;5068356;28;20186;-47
2020/12/28 04:48:08;;;;;;;1.60;1.50;;;;;;;;;;5072524;28;20499;-47
2020/12/28 04:50:35;;;;;;;1.50;1.40;;;;;;;;;;5057569;28;20194;-47
2020/12/28 04:53:02;;;;;;;1.48;1.30;;;;;;;;;;5069356;28;20185;-46
2020/12/28 04:55:28;;;;;;;2.55;1.45;;;;;;;;;;5076737;28;20209;-47
2020/12/28 04:57:54;;;;;;;1.45;1.35;;;;;;;;;;5058759;28;20213;-46
2020/12/28 05:00:20;;;;;;;1.40;1.30;;;;;;;;;;5073932;28;20292;-47
2020/12/28 05:02:47;;;;;;;2.25;1.30;;;;;;;;;;5076860;28;20214;-47
2020/12/28 05:05:13;;;;;;;1.27;1.17;;;;;;;;;;5077159;28;20566;-45
2020/12/28 05:07:39;;;;;;;1.60;1.38;;;;;;;;;;5060318;28;20221;-47
2020/12/28 05:10:05;;;;;;;1.40;1.25;;;;;;;;;;5057311;28;20202;-46
2020/12/28 05:12:31;;;;;;;1.30;1.20;;;;;;;;;;5057108;28;20176;-46
2020/12/28 05:15:08;;;;;;;1.52;1.20;;;;;;;;;;5073580;28;20442;-46
2020/12/28 05:17:34;;;;;;;1.65;1.50;;;;;;;;;;5061182;28;20175;-46
2020/12/28 05:20:01;;;;;;;1.50;1.40;;;;;;;;;;5057117;28;20195;-46
2020/12/28 05:22:28;;;;;;;2.30;1.50;;;;;;;;;;5056807;28;20865;-46
2020/12/28 05:24:54;;;;;;;1.33;1.25;;;;;;;;;;5056575;28;20447;-46
2020/12/28 05:27:20;;;;;;;1.50;1.40;;;;;;;;;;5062356;28;20187;-47
2020/12/28 05:29:46;;;;;;;1.20;1.10;;;;;;;;;;5056721;28;20642;-46
2020/12/28 05:32:17;;;;;;;1.20;1.10;;;;;;;;;;5057067;28;20262;-47
2020/12/28 05:34:44;;;;;;;1.40;1.30;;;;;;;;;;5056169;28;20912;-46
2020/12/28 05:37:12;;;;;;;1.27;1.17;;;;;;;;;;5068715;28;20182;-46
2020/12/28 05:39:38;;;;;;;1.40;1.30;;;;;;;;;;5065753;28;20458;-46
2020/12/28 05:42:09;;;;;;;1.30;1.20;;;;;;;;;;5075301;28;20496;-46
2020/12/28 05:44:36;;;;;;;1.30;1.20;;;;;;;;;;5075957;28;20178;-46
2020/12/28 05:47:09;;;;;;;1.35;1.17;;;;;;;;;;5065897;28;20240;-46
2020/12/28 05:49:36;;;;;;;1.50;1.30;;;;;;;;;;5056201;28;20597;-46
2020/12/28 05:52:02;;;;;;;1.20;1.10;;;;;;;;;;5056604;28;20470;-46
2020/12/28 05:54:29;;;;;;;1.40;1.30;;;;;;;;;;5065943;28;20228;-46
2020/12/28 05:56:55;;;;;;;1.45;1.35;;;;;;;;;;5065993;28;20526;-46
2020/12/28 05:59:22;;;;;;;1.55;1.40;;;;;;;;;;5056391;28;20194;-47
2020/12/28 06:01:48;;;;;;;1.48;1.33;;;;;;;;;;5056131;28;20215;-46
2020/12/28 06:04:15;;;;;;;1.60;1.50;;;;;;;;;;5056388;28;20512;-46
2020/12/28 06:06:42;;;;;;;1.50;1.40;;;;;;;;;;5062762;28;20186;-46
2020/12/28 06:09:09;;;;;;;1.50;1.40;;;;;;;;;;5063029;28;20226;-46
2020/12/28 06:11:35;;;;;;;1.65;1.55;;;;;;;;;;5055968;28;20171;-46
2020/12/28 06:14:11;;;;;;;1.38;1.27;;;;;;;;;;5056090;28;20716;-46
2020/12/28 06:16:37;;;;;;;1.35;1.25;;;;;;;;;;5062214;28;20198;-47
2020/12/28 06:19:03;;;;;;;1.73;1.42;;;;;;;;;;5076246;28;20209;-47
2020/12/28 06:21:36;;;;;;;1.20;1.10;;;;;;;;;;5075557;28;20179;-46
2020/12/28 06:24:02;;;;;;;1.70;1.60;;;;;;;;;;5059603;28;20474;-47
2020/12/28 06:26:28;;;;;;;1.63;1.52;;;;;;;;;;5060285;28;20214;-47
2020/12/28 06:29:04;;;;;;;1.30;1.23;;;;;;;;;;5075997;28;20178;-46
2020/12/28 06:31:31;;;;;;;1.42;1.33;;;;;;;;;;5075521;28;20166;-46
2020/12/28 06:33:57;;;;;;;1.40;1.30;;;;;;;;;;5075569;28;20179;-46
2020/12/28 06:36:23;;;;;;;1.98;1.60;;;;;;;;;;5071161;28;20246;-46
2020/12/28 06:38:55;;;;;;;1.50;1.20;;;;;;;;;;5065413;28;20275;-46
2020/12/28 06:41:28;;;;;;;1.30;1.20;;;;;;;;;;5055949;28;20176;-47
2020/12/28 06:43:59;;;;;;;1.45;1.30;;;;;;;;;;5055783;28;20175;-47
2020/12/28 06:46:25;;;;;;;1.52;1.42;;;;;;;;;;5059123;28;20561;-47
2020/12/28 06:48:51;;;;;;;1.50;1.40;;;;;;;;;;5071367;28;20195;-46
2020/12/28 06:51:17;;;;;;;1.45;1.35;;;;;;;;;;5056915;28;20175;-47
2020/12/28 06:53:43;;;;;;;1.67;1.52;;;;;;;;;;5055544;28;20765;-47
2020/12/28 06:56:10;;;;;;;1.45;1.35;;;;;;;;;;5056209;28;20202;-47
2020/12/28 06:58:37;;;;;;;1.80;1.70;;;;;;;;;;5055170;28;20183;-46
2020/12/28 07:01:04;;;;;;;1.60;1.50;;;;;;;;;;5071889;28;20202;-46
2020/12/28 07:03:30;;;;;;;2.10;1.60;;;;;;;;;;5075273;28;20427;-47
2020/12/28 07:06:02;;;;;;;1.40;1.30;;;;;;;;;;5066392;28;20229;-47
2020/12/28 07:08:28;;;;;;;1.20;1.10;;;;;;;;;;5054959;28;20265;-46
2020/12/28 07:11:04;;;;;;;1.42;1.33;;;;;;;;;;5054993;28;20677;-46
2020/12/28 07:13:33;;;;;;;1.30;1.20;;;;;;;;;;5054800;28;20206;-46
2020/12/28 07:16:02;;;;;;;1.50;1.40;;;;;;;;;;5054641;28;20444;-47
2020/12/28 07:18:28;;;;;;;1.40;1.30;;;;;;;;;;5054784;28;20167;-47
2020/12/28 07:20:55;;;;;;;1.20;1.10;;;;;;;;;;5062231;28;20566;-46
2020/12/28 07:23:22;;;;;;;2.35;1.40;;;;;;;;;;5054680;28;20179;-46
2020/12/28 07:25:48;;;;;;;2.00;1.70;;;;;;;;;;5054069;28;20183;-46
2020/12/28 07:28:14;;;;;;;2.40;1.40;;;;;;;;;;5056599;28;20224;-47
2020/12/28 07:30:40;;;;;;;1.33;1.23;;;;;;;;;;5054393;28;20201;-46
2020/12/28 07:33:06;;;;;;;5.90;1.55;;;;;;;;;;5059379;28;20558;-47
2020/12/28 07:35:32;;;;;;;1.85;1.70;;;;;;;;;;5073208;28;20496;-47
2020/12/28 07:37:58;;;;;;;2.28;1.55;;;;;;;;;;5058037;28;20201;-46
2020/12/28 07:40:24;;;;;;;1.50;1.20;;;;;;;;;;5054519;28;20431;-47
2020/12/28 07:42:50;;;;;;;2.08;1.50;;;;;;;;;;5054328;28;20266;-47
2020/12/28 07:45:16;;;;;;;1.30;1.20;;;;;;;;;;5054040;28;20225;-47
2020/12/28 07:47:45;;;;;;;1.45;1.30;;;;;;;;;;5064252;28;20190;-46
2020/12/28 07:50:13;;;;;;;2.17;1.38;;;;;;;;;;5064760;28;20205;-46
2020/12/28 07:52:54;;;;;;;3.38;1.33;;;;;;;;;;5073925;28;20174;-47
2020/12/28 07:55:20;;;;;;;1.48;1.38;;;;;;;;;;5071142;28;20170;-47
2020/12/28 07:58:05;;;;;;;1.83;1.48;;;;;;;;;;5063669;28;20232;-46
2020/12/28 08:00:34;;;;;;;2.95;1.23;;;;;;;;;;5073540;28;20219;-47
2020/12/28 08:03:10;;;;;;;2.05;1.38;;;;;;;;;;5058016;28;20199;-46
2020/12/28 08:05:36;;;;;;;2.50;1.30;;;;;;;;;;5053119;28;20179;-47
2020/12/28 08:08:02;;;;;;;2.28;1.50;;;;;;;;;;5055018;28;20244;-47
2020/12/28 08:10:28;;;;;;;2.53;1.50;;;;;;;;;;5065616;28;20208;-47
2020/12/28 08:13:01;;;;;;;2.30;1.48;;;;;;;;;;5074213;28;20187;-46
2020/12/28 08:15:28;;;;;;;1.98;1.70;;;;;;;;;;5064935;28;20190;-46
2020/12/28 08:18:06;;;;;;;1.92;1.45;;;;;;;;;;5053786;28;20171;-47
2020/12/28 08:20:33;;;;;;;2.65;1.73;;;;;;;;;;5065764;28;20212;-47
2020/12/28 08:22:59;;;;;;;2.45;1.50;;;;;;;;;;5068453;28;20207;-46
2020/12/28 08:25:29;;;;;;;2.33;1.50;;;;;;;;;;5075238;28;20560;-46
2020/12/28 08:27:57;;;;;;;2.03;1.48;;;;;;;;;;5076917;28;20190;-47
2020/12/28 08:30:26;;;;;;;2.75;1.60;;;;;;;;;;5073463;28;20236;-47
2020/12/28 08:32:52;;;;;;;3.03;1.60;;;;;;;;;;5071361;28;20449;-46
2020/12/28 08:35:17;;;;;;;3.60;1.80;;;;;;;;;;5054413;28;20217;-48
2020/12/28 08:37:48;;;;;;;5.47;1.98;;;;;;;;;;5067530;28;20179;-48
2020/12/28 08:40:15;;;;;;;3.92;1.73;;;;;;;;;;5057614;28;20171;-49
2020/12/28 08:42:41;;;;;;;2.75;1.77;;;;;;;;;;5057818;28;20197;-47
2020/12/28 08:45:07;;;;;;;4.75;1.70;;;;;;;;;;5060177;28;20577;-48
2020/12/28 08:47:33;;;;;;;2.47;2.22;;;;;;;;;;5060821;28;20186;-47
2020/12/28 08:49:59;;;;;;;1.75;1.60;;;;;;;;;;5061428;28;20323;-47
2020/12/28 08:52:25;;;;;;;2.70;1.60;;;;;;;;;;5064244;28;20190;-48
2020/12/28 08:54:58;;;;;;;4.82;1.92;;;;;;;;;;5058795;28;20183;-45
2020/12/28 08:57:28;;;;;;;3.10;2.08;;;;;;;;;;5060137;28;20190;-48
2020/12/28 08:59:55;;;;;;;1.73;1.55;;;;;;;;;;5065407;28;20189;-48
2020/12/28 09:02:22;;;;;;;3.22;1.75;;;;;;;;;;5061434;28;20217;-48
2020/12/28 09:04:48;;;;;;;3.42;2.13;;;;;;;;;;5059980;28;20497;-48
2020/12/28 09:07:15;;;;;;;5.43;1.80;;;;;;;;;;5061175;28;20195;-48
2020/12/28 09:09:42;;;;;;;7.18;1.98;;;;;;;;;;5056698;28;20248;-48
2020/12/28 10:54:38;;;;;;;30.30;10.38;;;;;;;;;;5073802;28;20302;-45
2020/12/28 10:57:04;;;;;;;29.58;10.80;;;;;;;;;;5074479;28;20264;-48
2020/12/28 10:59:30;;;;;;;31.38;10.43;;;;;;;;;;5074165;28;20236;-48
2020/12/28 11:01:56;;;;;;;25.80;10.20;;;;;;;;;;5074994;28;20210;-49
2020/12/28 11:04:22;;;;;;;31.65;10.50;;;;;;;;;;5074008;28;20179;-49
2020/12/28 11:06:48;;;;;;;25.33;10.20;;;;;;;;;;5074637;28;20210;-49
2020/12/28 11:09:14;;;;;;;25.83;9.20;;;;;;;;;;5074980;28;20263;-49
2020/12/28 11:11:40;;;;;;;27.13;9.48;;;;;;;;;;5074708;28;20820;-49
2020/12/28 11:14:06;;;;;;;27.20;9.77;;;;;;;;;;5067974;28;20393;-49
2020/12/28 11:16:32;;;;;;;23.95;9.38;;;;;;;;;;5072687;28;20190;-49
2020/12/28 11:18:58;;;;;;;20.65;8.70;;;;;;;;;;5073932;28;20213;-48
2020/12/28 11:21:24;;;;;;;26.90;9.05;;;;;;;;;;5074138;28;20220;-50
2020/12/28 11:24:00;;;;;;;21.30;9.02;;;;;;;;;;5073150;28;20189;-48
2020/12/28 11:26:27;;;;;;;23.95;8.90;;;;;;;;;;5061395;28;20190;-49
2020/12/28 11:28:54;;;;;;;20.08;8.50;;;;;;;;;;5069243;28;20199;-49
2020/12/28 11:31:20;;;;;;;23.50;9.75;;;;;;;;;;5070088;28;20186;-50
2020/12/28 11:33:46;;;;;;;29.33;10.65;;;;;;;;;;5064607;28;20301;-49
2020/12/28 11:36:12;;;;;;;25.60;10.63;;;;;;;;;;5071136;28;20194;-48
2020/12/28 11:38:38;;;;;;;28.77;10.38;;;;;;;;;;5073704;28;20269;-49
2020/12/28 11:41:04;;;;;;;24.70;9.73;;;;;;;;;;5073347;28;20676;-49
2020/12/28 11:43:30;;;;;;;26.92;11.23;;;;;;;;;;5073787;28;20312;-48
2020/12/28 11:45:57;;;;;;;23.27;10.18;;;;;;;;;;5073525;28;20269;-47
2020/12/28 11:48:23;;;;;;;23.83;10.70;;;;;;;;;;5073910;28;20181;-49
2020/12/28 11:50:49;;;;;;;21.33;10.25;;;;;;;;;;5073769;28;20210;-48
2020/12/28 11:53:15;;;;;;;23.98;10.32;;;;;;;;;;5073494;28;20240;-49
2020/12/28 11:58:26;;;;;;;24.33;10.02;;;;;;;;;;5073806;28;20213;-48
2020/12/28 12:00:52;;;;;;;27.70;10.63;;;;;;;;;;5070386;28;20600;-48
2020/12/28 12:03:18;;;;;;;24.38;9.93;;;;;;;;;;5070992;28;20190;-49
2020/12/28 12:05:44;;;;;;;30.95;9.65;;;;;;;;;;5068562;28;20193;-48
2020/12/28 12:08:10;;;;;;;29.80;9.68;;;;;;;;;;5069790;28;20266;-49
2020/12/28 12:10:36;;;;;;;24.15;8.55;;;;;;;;;;5073628;28;20229;-49
2020/12/28 12:13:02;;;;;;;15.32;7.13;;;;;;;;;;5073878;28;20220;-49
2020/12/28 12:15:28;;;;;;;15.45;6.70;;;;;;;;;;5070307;28;20512;-47
2020/12/28 12:17:54;;;;;;;13.40;6.28;;;;;;;;;;5073611;28;20178;-48
2020/12/28 12:20:20;;;;;;;10.63;5.53;;;;;;;;;;5073730;28;20185;-48
2020/12/28 12:22:46;;;;;;;15.10;6.38;;;;;;;;;;5073462;28;20182;-47
2020/12/28 12:25:12;;;;;;;18.27;7.28;;;;;;;;;;5073187;28;20178;-47
2020/12/28 12:27:38;;;;;;;13.65;6.18;;;;;;;;;;5073211;28;20197;-47
2020/12/28 12:30:04;;;;;;;14.05;6.72;;;;;;;;;;5073512;28;20230;-47
2020/12/28 12:32:31;;;;;;;11.70;6.00;;;;;;;;;;5072329;28;20194;-48
2020/12/28 12:34:57;;;;;;;15.25;6.50;;;;;;;;;;5073150;28;20241;-47
2020/12/28 12:37:23;;;;;;;13.80;6.63;;;;;;;;;;5082128;28;20186;-48
2020/12/28 12:39:49;;;;;;;15.40;6.03;;;;;;;;;;5073376;28;20182;-48
2020/12/28 12:42:15;;;;;;;14.68;6.45;;;;;;;;;;5067313;28;20269;-48
2020/12/28 12:44:44;;;;;;;12.77;6.43;;;;;;;;;;5065780;28;20194;-48
2020/12/28 12:47:10;;;;;;;14.55;7.03;;;;;;;;;;5071413;28;20210;-48
2020/12/28 12:49:36;;;;;;;16.98;6.70;;;;;;;;;;5070200;28;20623;-48
2020/12/28 12:52:18;;;;;;;13.60;6.60;;;;;;;;;;5071772;28;20179;-46
2020/12/28 12:54:45;;;;;;;13.05;6.57;;;;;;;;;;5067853;28;20182;-44
2020/12/28 12:57:11;;;;;;;16.67;6.80;;;;;;;;;;5059436;28;20199;-46
2020/12/28 13:02:25;;;;;;;13.50;6.20;;;;;;;;;;5073327;28;20249;-46
2020/12/28 13:04:51;;;;;;;16.80;6.30;;;;;;;;;;5074366;28;20469;-45
2020/12/28 13:07:17;;;;;;;14.90;6.97;;;;;;;;;;5076272;28;20174;-46
2020/12/28 13:09:43;;;;;;;16.55;7.03;;;;;;;;;;5076654;28;20574;-46
2020/12/28 13:12:09;;;;;;;13.63;6.38;;;;;;;;;;5076640;28;20182;-45
2020/12/28 13:14:35;;;;;;;11.18;5.78;;;;;;;;;;5075739;28;20185;-45
2020/12/28 13:17:01;;;;;;;11.18;5.47;;;;;;;;;;5076673;28;20194;-46
2020/12/28 13:19:27;;;;;;;13.98;6.47;;;;;;;;;;5076341;28;20224;-45
2020/12/28 13:21:53;;;;;;;13.88;5.70;;;;;;;;;;5077181;28;20190;-46
2020/12/28 13:24:19;;;;;;;14.70;5.90;;;;;;;;;;5075799;28;20186;-46
2020/12/28 13:26:45;;;;;;;12.90;5.72;;;;;;;;;;5076363;28;20264;-46
2020/12/28 13:29:11;;;;;;;10.18;5.45;;;;;;;;;;5075669;28;20531;-46
2020/12/28 13:31:38;;;;;;;12.40;5.60;;;;;;;;;;5076116;28;20186;-45
2020/12/28 13:34:04;;;;;;;12.77;5.78;;;;;;;;;;5076369;28;20183;-45
2020/12/28 13:36:34;;;;;;;14.25;5.82;;;;;;;;;;5076011;28;20563;-44
2020/12/28 13:39:00;;;;;;;15.02;5.70;;;;;;;;;;5076225;28;20177;-45
2020/12/28 13:41:26;;;;;;;13.85;5.82;;;;;;;;;;5076042;28;20182;-46
2020/12/28 13:43:52;;;;;;;9.70;5.45;;;;;;;;;;5076107;28;20569;-44
2020/12/28 13:46:18;;;;;;;8.13;5.38;;;;;;;;;;5071359;28;20202;-45
2020/12/28 13:48:44;;;;;;;7.35;5.28;;;;;;;;;;5069338;28;20565;-45
2020/12/28 13:51:10;;;;;;;11.50;5.97;;;;;;;;;;5071622;28;20198;-44
2020/12/28 13:53:36;;;;;;;13.38;5.55;;;;;;;;;;5075697;28;20228;-46
2020/12/28 13:56:02;;;;;;;13.40;5.47;;;;;;;;;;5075327;28;20190;-46
2020/12/28 13:58:28;;;;;;;9.85;5.18;;;;;;;;;;5075887;28;20198;-46
2020/12/28 14:00:54;;;;;;;9.35;5.00;;;;;;;;;;5075656;28;20492;-44
2020/12/28 14:03:20;;;;;;;11.63;5.10;;;;;;;;;;5070371;28;20183;-45
2020/12/28 14:05:46;;;;;;;13.82;5.95;;;;;;;;;;5075399;28;20182;-45
2020/12/28 14:08:15;;;;;;;13.23;6.72;;;;;;;;;;5075851;28;20182;-45
2020/12/28 14:10:41;;;;;;;13.77;5.93;;;;;;;;;;5074975;28;20325;-45
2020/12/28 14:13:07;;;;;;;15.43;5.93;;;;;;;;;;5076625;28;20600;-45
2020/12/28 14:15:33;;;;;;;15.00;6.10;;;;;;;;;;5074446;28;20186;-45
2020/12/28 14:17:59;;;;;;;10.73;5.63;;;;;;;;;;5075857;28;20283;-46
2020/12/28 14:20:25;;;;;;;11.15;5.72;;;;;;;;;;5075019;28;20190;-45
2020/12/28 14:22:52;;;;;;;13.45;6.18;;;;;;;;;;5076162;28;20605;-46
2020/12/28 14:25:18;;;;;;;12.20;5.45;;;;;;;;;;5075396;28;20589;-46
2020/12/28 14:27:44;;;;;;;11.43;5.90;;;;;;;;;;5075518;28;20186;-44
2020/12/28 14:30:09;;;;;;;12.38;5.78;;;;;;;;;;5075642;28;20812;-45
2020/12/28 14:32:35;;;;;;;15.55;5.93;;;;;;;;;;5075580;28;20190;-46
2020/12/28 14:35:01;;;;;;;10.60;5.35;;;;;;;;;;5074639;28;20178;-45
2020/12/28 14:37:27;;;;;;;8.18;5.13;;;;;;;;;;5074654;28;20243;-45
2020/12/28 14:39:53;;;;;;;11.27;5.22;;;;;;;;;;5075428;28;20194;-45
2020/12/28 14:42:19;;;;;;;10.88;5.28;;;;;;;;;;5075961;28;20197;-45
2020/12/28 14:44:45;;;;;;;11.15;5.43;;;;;;;;;;5067370;28;20183;-45
2020/12/28 14:47:11;;;;;;;10.48;5.13;;;;;;;;;;5076038;28;20174;-45
2020/12/28 14:49:37;;;;;;;9.55;4.65;;;;;;;;;;5074728;28;20191;-44
2020/12/28 14:52:03;;;;;;;10.82;4.88;;;;;;;;;;5071455;28;20175;-43
2020/12/28 14:54:29;;;;;;;13.32;4.95;;;;;;;;;;5064119;28;20182;-44
2020/12/28 14:56:56;;;;;;;9.88;4.88;;;;;;;;;;5075003;28;20251;-46
2020/12/28 14:59:22;;;;;;;11.02;5.00;;;;;;;;;;5074464;28;20195;-45
2020/12/28 15:01:48;;;;;;;7.28;4.50;;;;;;;;;;5074705;28;20183;-45
2020/12/28 15:04:14;;;;;;;8.60;4.63;;;;;;;;;;5073651;28;20259;-43
2020/12/28 15:06:40;;;;;;;10.07;4.88;;;;;;;;;;5073952;28;20186;-45
2020/12/28 15:09:06;;;;;;;10.07;5.13;;;;;;;;;;5071051;28;20175;-46
2020/12/28 15:11:32;;;;;;;7.22;4.50;;;;;;;;;;5074734;28;20583;-44
2020/12/28 15:13:58;;;;;;;8.43;4.55;;;;;;;;;;5074274;28;20212;-45
2020/12/28 15:16:24;;;;;;;6.38;4.28;;;;;;;;;;5073710;28;20179;-45
2020/12/28 15:18:50;;;;;;;6.65;4.40;;;;;;;;;;5074340;28;20258;-45
2020/12/28 15:21:16;;;;;;;7.38;4.70;;;;;;;;;;5074262;28;20478;-45
2020/12/28 15:23:42;;;;;;;8.23;4.30;;;;;;;;;;5073917;28;20186;-45
2020/12/28 15:26:08;;;;;;;6.57;4.65;;;;;;;;;;5072688;28;20612;-44
2020/12/28 15:28:34;;;;;;;8.15;5.15;;;;;;;;;;5074027;28;20186;-45
2020/12/28 15:31:00;;;;;;;7.18;4.60;;;;;;;;;;5073979;28;20214;-45
2020/12/28 15:33:25;;;;;;;8.75;4.80;;;;;;;;;;5073775;28;20820;-45
2020/12/28 15:35:51;;;;;;;5.80;3.95;;;;;;;;;;5073050;28;20241;-44
2020/12/28 15:38:17;;;;;;;8.07;4.45;;;;;;;;;;5074597;28;20186;-45
2020/12/28 15:40:43;;;;;;;8.45;4.57;;;;;;;;;;5072538;28;20182;-45
2020/12/28 15:43:10;;;;;;;7.05;4.10;;;;;;;;;;5059601;28;20211;-45
2020/12/28 15:45:36;;;;;;;7.63;4.28;;;;;;;;;;5065411;28;20186;-45
2020/12/28 15:48:02;;;;;;;7.35;4.40;;;;;;;;;;5074438;28;20178;-45
2020/12/28 15:50:28;;;;;;;6.65;4.10;;;;;;;;;;5072553;28;20238;-46
2020/12/28 15:52:54;;;;;;;6.53;3.92;;;;;;;;;;5060659;28;20217;-44
2020/12/28 15:55:20;;;;;;;6.35;4.25;;;;;;;;;;5072242;28;20197;-45
2020/12/28 15:57:46;;;;;;;7.40;4.50;;;;;;;;;;5077234;28;20632;-45
2020/12/28 16:00:12;;;;;;;6.85;4.32;;;;;;;;;;5069102;28;20600;-44
2020/12/28 16:02:38;;;;;;;6.18;4.07;;;;;;;;;;5072815;28;20236;-44
2020/12/28 16:05:04;;;;;;;5.80;4.07;;;;;;;;;;5072843;28;20640;-45
2020/12/28 16:07:30;;;;;;;5.43;3.92;;;;;;;;;;5073456;28;20332;-45
2020/12/28 16:09:56;;;;;;;5.43;3.90;;;;;;;;;;5072895;28;20217;-45
2020/12/28 16:12:22;;;;;;;6.43;4.25;;;;;;;;;;5073645;28;20177;-45
2020/12/28 16:14:49;;;;;;;6.40;4.00;;;;;;;;;;5072662;28;20178;-45
2020/12/28 16:17:15;;;;;;;6.05;4.10;;;;;;;;;;5069622;28;20519;-45
2020/12/28 16:19:41;;;;;;;5.15;4.05;;;;;;;;;;5073510;28;20488;-45
2020/12/28 16:22:07;;;;;;;5.88;4.57;;;;;;;;;;5073755;28;20236;-45